sensor_id;sensor_type;location;lat;lon;timestamp;P1;durP1;ratioP1;P2;durP2;ratioP2
63699;SDS011;49845;47.130;142.766;2023-02-05T00:00:05;13.50;;;8.15;;
63699;SDS011;49845;47.130;142.766;2023-02-05T00:02:36;14.27;;;6.88;;
63699;SDS011;49845;47.130;142.766;2023-02-05T00:05:07;13.30;;;6.30;;
63699;SDS011;49845;47.130;142.766;2023-02-05T00:07:40;13.68;;;5.80;;
63699;SDS011;49845;47.130;142.766;2023-02-05T00:10:11;12.05;;;5.38;;
63699;SDS011;49845;47.130;142.766;2023-02-05T00:12:42;13.25;;;5.00;;
63699;SDS011;49845;47.130;142.766;2023-02-05T00:15:13;9.18;;;5.25;;
63699;SDS011;49845;47.130;142.766;2023-02-05T00:17:43;9.95;;;5.13;;
63699;SDS011;49845;47.130;142.766;2023-02-05T00:20:14;10.68;;;5.38;;
63699;SDS011;49845;47.130;142.766;2023-02-05T00:22:47;8.13;;;4.60;;
63699;SDS011;49845;47.130;142.766;2023-02-05T00:25:17;8.25;;;5.20;;
63699;SDS011;49845;47.130;142.766;2023-02-05T00:27:47;12.02;;;5.60;;
63699;SDS011;49845;47.130;142.766;2023-02-05T00:30:18;9.88;;;5.47;;
63699;SDS011;49845;47.130;142.766;2023-02-05T00:32:49;12.60;;;5.88;;
63699;SDS011;49845;47.130;142.766;2023-02-05T00:35:19;14.15;;;5.78;;
63699;SDS011;49845;47.130;142.766;2023-02-05T00:37:52;13.80;;;5.95;;
63699;SDS011;49845;47.130;142.766;2023-02-05T00:40:22;8.85;;;4.68;;
63699;SDS011;49845;47.130;142.766;2023-02-05T00:42:53;8.55;;;4.75;;
63699;SDS011;49845;47.130;142.766;2023-02-05T00:45:23;14.38;;;6.60;;
63699;SDS011;49845;47.130;142.766;2023-02-05T00:47:59;13.85;;;7.13;;
63699;SDS011;49845;47.130;142.766;2023-02-05T00:50:29;11.02;;;6.25;;
63699;SDS011;49845;47.130;142.766;2023-02-05T00:53:02;13.70;;;6.45;;
63699;SDS011;49845;47.130;142.766;2023-02-05T00:55:32;12.40;;;6.32;;
63699;SDS011;49845;47.130;142.766;2023-02-05T00:58:03;12.23;;;5.68;;
63699;SDS011;49845;47.130;142.766;2023-02-05T01:00:35;10.82;;;6.07;;
63699;SDS011;49845;47.130;142.766;2023-02-05T01:03:07;15.70;;;6.32;;
63699;SDS011;49845;47.130;142.766;2023-02-05T01:05:37;13.13;;;6.25;;
63699;SDS011;49845;47.130;142.766;2023-02-05T01:08:11;13.48;;;5.90;;
63699;SDS011;49845;47.130;142.766;2023-02-05T01:10:43;13.65;;;5.53;;
63699;SDS011;49845;47.130;142.766;2023-02-05T01:13:14;10.43;;;5.55;;
63699;SDS011;49845;47.130;142.766;2023-02-05T01:15:46;15.27;;;7.50;;
63699;SDS011;49845;47.130;142.766;2023-02-05T01:18:16;13.60;;;5.90;;
63699;SDS011;49845;47.130;142.766;2023-02-05T01:20:47;11.65;;;6.50;;
63699;SDS011;49845;47.130;142.766;2023-02-05T01:23:19;16.67;;;6.63;;
63699;SDS011;49845;47.130;142.766;2023-02-05T01:25:49;14.35;;;6.85;;
63699;SDS011;49845;47.130;142.766;2023-02-05T01:28:20;15.20;;;7.35;;
63699;SDS011;49845;47.130;142.766;2023-02-05T01:30:51;17.25;;;7.72;;
63699;SDS011;49845;47.130;142.766;2023-02-05T01:33:21;15.60;;;7.88;;
63699;SDS011;49845;47.130;142.766;2023-02-05T01:35:52;17.83;;;8.50;;
63699;SDS011;49845;47.130;142.766;2023-02-05T01:38:24;20.75;;;9.13;;
63699;SDS011;49845;47.130;142.766;2023-02-05T01:40:54;24.33;;;9.05;;
63699;SDS011;49845;47.130;142.766;2023-02-05T01:43:26;17.63;;;9.23;;
63699;SDS011;49845;47.130;142.766;2023-02-05T01:46:05;21.02;;;9.10;;
63699;SDS011;49845;47.130;142.766;2023-02-05T01:48:45;19.55;;;9.10;;
63699;SDS011;49845;47.130;142.766;2023-02-05T01:51:19;24.38;;;9.57;;
63699;SDS011;49845;47.130;142.766;2023-02-05T01:53:53;18.73;;;9.30;;
63699;SDS011;49845;47.130;142.766;2023-02-05T01:56:25;25.50;;;9.35;;
63699;SDS011;49845;47.130;142.766;2023-02-05T01:59:01;23.00;;;9.75;;
63699;SDS011;49845;47.130;142.766;2023-02-05T02:01:36;21.90;;;10.20;;
63699;SDS011;49845;47.130;142.766;2023-02-05T02:04:08;38.75;;;13.95;;
63699;SDS011;49845;47.130;142.766;2023-02-05T02:06:42;27.67;;;10.50;;
63699;SDS011;49845;47.130;142.766;2023-02-05T02:09:14;23.15;;;9.73;;
63699;SDS011;49845;47.130;142.766;2023-02-05T02:11:45;25.77;;;11.50;;
63699;SDS011;49845;47.130;142.766;2023-02-05T02:14:16;32.85;;;11.93;;
63699;SDS011;49845;47.130;142.766;2023-02-05T02:16:50;32.58;;;13.18;;
63699;SDS011;49845;47.130;142.766;2023-02-05T02:19:29;31.52;;;13.93;;
63699;SDS011;49845;47.130;142.766;2023-02-05T02:22:11;33.42;;;12.38;;
63699;SDS011;49845;47.130;142.766;2023-02-05T02:25:06;32.13;;;12.82;;
63699;SDS011;49845;47.130;142.766;2023-02-05T02:28:02;26.05;;;11.90;;
63699;SDS011;49845;47.130;142.766;2023-02-05T02:30:39;30.77;;;12.43;;
63699;SDS011;49845;47.130;142.766;2023-02-05T02:33:16;25.45;;;11.25;;
63699;SDS011;49845;47.130;142.766;2023-02-05T02:35:54;25.83;;;10.82;;
63699;SDS011;49845;47.130;142.766;2023-02-05T02:38:30;28.67;;;12.18;;
63699;SDS011;49845;47.130;142.766;2023-02-05T02:41:06;24.73;;;11.63;;
63699;SDS011;49845;47.130;142.766;2023-02-05T02:43:42;25.13;;;10.98;;
63699;SDS011;49845;47.130;142.766;2023-02-05T02:46:19;23.85;;;11.18;;
63699;SDS011;49845;47.130;142.766;2023-02-05T02:48:53;41.53;;;20.30;;
63699;SDS011;49845;47.130;142.766;2023-02-05T02:51:27;26.00;;;11.07;;
63699;SDS011;49845;47.130;142.766;2023-02-05T02:53:59;18.88;;;7.88;;
63699;SDS011;49845;47.130;142.766;2023-02-05T02:56:35;17.13;;;8.05;;
63699;SDS011;49845;47.130;142.766;2023-02-05T02:59:10;23.65;;;9.10;;
63699;SDS011;49845;47.130;142.766;2023-02-05T03:01:45;12.70;;;6.15;;
63699;SDS011;49845;47.130;142.766;2023-02-05T03:04:21;16.85;;;6.65;;
63699;SDS011;49845;47.130;142.766;2023-02-05T03:06:58;18.48;;;6.32;;
63699;SDS011;49845;47.130;142.766;2023-02-05T03:09:36;14.85;;;6.75;;
63699;SDS011;49845;47.130;142.766;2023-02-05T03:12:11;13.38;;;5.88;;
63699;SDS011;49845;47.130;142.766;2023-02-05T03:14:43;12.38;;;5.70;;
63699;SDS011;49845;47.130;142.766;2023-02-05T03:17:14;13.70;;;6.30;;
63699;SDS011;49845;47.130;142.766;2023-02-05T03:19:46;11.27;;;5.40;;
63699;SDS011;49845;47.130;142.766;2023-02-05T03:22:21;12.25;;;5.80;;
63699;SDS011;49845;47.130;142.766;2023-02-05T03:24:52;12.88;;;5.57;;
63699;SDS011;49845;47.130;142.766;2023-02-05T03:27:23;13.95;;;5.47;;
63699;SDS011;49845;47.130;142.766;2023-02-05T03:29:56;10.98;;;5.18;;
63699;SDS011;49845;47.130;142.766;2023-02-05T03:32:29;11.55;;;5.90;;
63699;SDS011;49845;47.130;142.766;2023-02-05T03:35:19;12.98;;;5.78;;
63699;SDS011;49845;47.130;142.766;2023-02-05T03:38:07;10.38;;;5.47;;
63699;SDS011;49845;47.130;142.766;2023-02-05T03:40:50;13.02;;;6.18;;
63699;SDS011;49845;47.130;142.766;2023-02-05T03:43:28;56.63;;;17.95;;
63699;SDS011;49845;47.130;142.766;2023-02-05T03:46:07;81.80;;;23.15;;
63699;SDS011;49845;47.130;142.766;2023-02-05T03:48:50;46.90;;;15.15;;
63699;SDS011;49845;47.130;142.766;2023-02-05T03:51:32;67.18;;;18.98;;
63699;SDS011;49845;47.130;142.766;2023-02-05T03:54:09;51.08;;;16.13;;
63699;SDS011;49845;47.130;142.766;2023-02-05T03:56:44;40.60;;;15.20;;
63699;SDS011;49845;47.130;142.766;2023-02-05T03:59:21;41.05;;;12.90;;
63699;SDS011;49845;47.130;142.766;2023-02-05T04:01:55;49.13;;;16.23;;
63699;SDS011;49845;47.130;142.766;2023-02-05T04:04:26;53.33;;;17.48;;
63699;SDS011;49845;47.130;142.766;2023-02-05T04:06:57;57.75;;;18.23;;
63699;SDS011;49845;47.130;142.766;2023-02-05T04:09:28;50.42;;;15.05;;
63699;SDS011;49845;47.130;142.766;2023-02-05T04:11:59;50.88;;;15.63;;
63699;SDS011;49845;47.130;142.766;2023-02-05T04:14:32;28.00;;;10.60;;
63699;SDS011;49845;47.130;142.766;2023-02-05T04:17:04;23.25;;;9.25;;
63699;SDS011;49845;47.130;142.766;2023-02-05T04:19:35;13.65;;;6.38;;
63699;SDS011;49845;47.130;142.766;2023-02-05T04:22:09;12.43;;;5.65;;
63699;SDS011;49845;47.130;142.766;2023-02-05T04:24:39;22.67;;;11.40;;
63699;SDS011;49845;47.130;142.766;2023-02-05T04:27:10;15.20;;;6.72;;
63699;SDS011;49845;47.130;142.766;2023-02-05T04:29:40;12.07;;;6.28;;
63699;SDS011;49845;47.130;142.766;2023-02-05T04:32:13;11.82;;;5.43;;
63699;SDS011;49845;47.130;142.766;2023-02-05T04:34:43;16.60;;;6.57;;
63699;SDS011;49845;47.130;142.766;2023-02-05T04:37:14;10.93;;;5.28;;
63699;SDS011;49845;47.130;142.766;2023-02-05T04:39:45;11.73;;;4.65;;
63699;SDS011;49845;47.130;142.766;2023-02-05T04:42:16;11.23;;;4.60;;
63699;SDS011;49845;47.130;142.766;2023-02-05T04:44:46;11.57;;;5.40;;
63699;SDS011;49845;47.130;142.766;2023-02-05T04:47:19;13.07;;;5.20;;
63699;SDS011;49845;47.130;142.766;2023-02-05T04:49:50;11.85;;;5.40;;
63699;SDS011;49845;47.130;142.766;2023-02-05T04:52:23;24.40;;;11.02;;
63699;SDS011;49845;47.130;142.766;2023-02-05T04:54:53;11.35;;;6.43;;
63699;SDS011;49845;47.130;142.766;2023-02-05T04:57:24;19.70;;;8.02;;
63699;SDS011;49845;47.130;142.766;2023-02-05T04:59:54;11.52;;;5.55;;
63699;SDS011;49845;47.130;142.766;2023-02-05T05:02:27;13.23;;;6.40;;
63699;SDS011;49845;47.130;142.766;2023-02-05T05:05:00;14.70;;;7.43;;
63699;SDS011;49845;47.130;142.766;2023-02-05T05:07:31;12.10;;;5.63;;
63699;SDS011;49845;47.130;142.766;2023-02-05T05:10:02;10.30;;;5.38;;
63699;SDS011;49845;47.130;142.766;2023-02-05T05:12:33;12.02;;;5.03;;
63699;SDS011;49845;47.130;142.766;2023-02-05T05:15:05;8.18;;;5.15;;
63699;SDS011;49845;47.130;142.766;2023-02-05T05:17:38;10.65;;;4.57;;
63699;SDS011;49845;47.130;142.766;2023-02-05T05:20:09;8.07;;;3.95;;
63699;SDS011;49845;47.130;142.766;2023-02-05T05:22:39;7.72;;;3.70;;
63699;SDS011;49845;47.130;142.766;2023-02-05T05:25:10;6.78;;;4.15;;
63699;SDS011;49845;47.130;142.766;2023-02-05T05:27:40;8.52;;;4.00;;
63699;SDS011;49845;47.130;142.766;2023-02-05T05:30:11;15.65;;;6.40;;
63699;SDS011;49845;47.130;142.766;2023-02-05T05:32:44;8.98;;;5.32;;
63699;SDS011;49845;47.130;142.766;2023-02-05T05:35:15;15.93;;;7.78;;
63699;SDS011;49845;47.130;142.766;2023-02-05T05:37:45;25.15;;;8.13;;
63699;SDS011;49845;47.130;142.766;2023-02-05T05:40:16;18.08;;;7.38;;
63699;SDS011;49845;47.130;142.766;2023-02-05T05:43:04;12.05;;;6.30;;
63699;SDS011;49845;47.130;142.766;2023-02-05T05:45:51;15.25;;;6.68;;
63699;SDS011;49845;47.130;142.766;2023-02-05T05:48:23;14.20;;;6.30;;
63699;SDS011;49845;47.130;142.766;2023-02-05T05:50:54;13.07;;;6.88;;
63699;SDS011;49845;47.130;142.766;2023-02-05T05:53:27;9.55;;;4.45;;
63699;SDS011;49845;47.130;142.766;2023-02-05T05:55:58;9.73;;;5.20;;
63699;SDS011;49845;47.130;142.766;2023-02-05T05:58:28;12.48;;;5.63;;
63699;SDS011;49845;47.130;142.766;2023-02-05T06:00:59;11.75;;;5.10;;
63699;SDS011;49845;47.130;142.766;2023-02-05T06:03:31;12.48;;;6.00;;
63699;SDS011;49845;47.130;142.766;2023-02-05T06:06:01;9.43;;;4.70;;
63699;SDS011;49845;47.130;142.766;2023-02-05T06:08:33;12.93;;;5.30;;
63699;SDS011;49845;47.130;142.766;2023-02-05T06:11:04;8.63;;;4.63;;
63699;SDS011;49845;47.130;142.766;2023-02-05T06:13:34;10.90;;;5.63;;
63699;SDS011;49845;47.130;142.766;2023-02-05T06:16:05;9.52;;;5.38;;
63699;SDS011;49845;47.130;142.766;2023-02-05T06:18:38;8.15;;;4.80;;
63699;SDS011;49845;47.130;142.766;2023-02-05T06:21:08;9.70;;;4.20;;
63699;SDS011;49845;47.130;142.766;2023-02-05T06:23:39;11.35;;;4.90;;
63699;SDS011;49845;47.130;142.766;2023-02-05T06:26:11;11.45;;;4.75;;
63699;SDS011;49845;47.130;142.766;2023-02-05T06:28:42;8.68;;;5.20;;
63699;SDS011;49845;47.130;142.766;2023-02-05T06:31:14;11.07;;;5.35;;
63699;SDS011;49845;47.130;142.766;2023-02-05T06:33:46;15.63;;;6.35;;
63699;SDS011;49845;47.130;142.766;2023-02-05T06:36:17;12.65;;;6.45;;
63699;SDS011;49845;47.130;142.766;2023-02-05T06:38:47;19.52;;;8.77;;
63699;SDS011;49845;47.130;142.766;2023-02-05T06:41:18;10.55;;;5.97;;
63699;SDS011;49845;47.130;142.766;2023-02-05T06:43:49;11.25;;;5.57;;
63699;SDS011;49845;47.130;142.766;2023-02-05T06:46:19;12.15;;;5.60;;
63699;SDS011;49845;47.130;142.766;2023-02-05T06:48:51;10.75;;;4.53;;
63699;SDS011;49845;47.130;142.766;2023-02-05T06:51:22;9.52;;;4.57;;
63699;SDS011;49845;47.130;142.766;2023-02-05T06:53:52;9.88;;;5.10;;
63699;SDS011;49845;47.130;142.766;2023-02-05T06:56:23;22.10;;;9.63;;
63699;SDS011;49845;47.130;142.766;2023-02-05T06:58:54;14.55;;;7.20;;
63699;SDS011;49845;47.130;142.766;2023-02-05T07:01:24;12.50;;;6.40;;
63699;SDS011;49845;47.130;142.766;2023-02-05T07:03:57;25.45;;;10.25;;
63699;SDS011;49845;47.130;142.766;2023-02-05T07:06:27;11.00;;;5.90;;
63699;SDS011;49845;47.130;142.766;2023-02-05T07:08:58;28.48;;;10.40;;
63699;SDS011;49845;47.130;142.766;2023-02-05T07:11:28;29.95;;;9.85;;
63699;SDS011;49845;47.130;142.766;2023-02-05T07:13:59;27.38;;;10.52;;
63699;SDS011;49845;47.130;142.766;2023-02-05T07:16:30;20.33;;;7.75;;
63699;SDS011;49845;47.130;142.766;2023-02-05T07:19:02;8.48;;;4.97;;
63699;SDS011;49845;47.130;142.766;2023-02-05T07:21:32;10.48;;;4.82;;
63699;SDS011;49845;47.130;142.766;2023-02-05T07:24:03;30.83;;;10.45;;
63699;SDS011;49845;47.130;142.766;2023-02-05T07:26:34;27.48;;;10.07;;
63699;SDS011;49845;47.130;142.766;2023-02-05T07:29:05;26.83;;;10.25;;
63699;SDS011;49845;47.130;142.766;2023-02-05T07:31:35;21.35;;;8.05;;
63699;SDS011;49845;47.130;142.766;2023-02-05T07:34:07;16.70;;;6.85;;
63699;SDS011;49845;47.130;142.766;2023-02-05T07:36:38;12.05;;;5.70;;
63699;SDS011;49845;47.130;142.766;2023-02-05T07:39:08;9.52;;;5.25;;
63699;SDS011;49845;47.130;142.766;2023-02-05T07:41:39;10.52;;;5.03;;
63699;SDS011;49845;47.130;142.766;2023-02-05T07:44:09;11.52;;;4.85;;
63699;SDS011;49845;47.130;142.766;2023-02-05T07:46:40;14.80;;;5.63;;
63699;SDS011;49845;47.130;142.766;2023-02-05T07:49:14;12.57;;;5.68;;
63699;SDS011;49845;47.130;142.766;2023-02-05T07:51:45;10.73;;;5.38;;
63699;SDS011;49845;47.130;142.766;2023-02-05T07:54:16;13.07;;;5.72;;
63699;SDS011;49845;47.130;142.766;2023-02-05T07:56:47;10.95;;;4.97;;
63699;SDS011;49845;47.130;142.766;2023-02-05T07:59:17;12.15;;;5.50;;
63699;SDS011;49845;47.130;142.766;2023-02-05T08:01:47;12.45;;;5.85;;
63699;SDS011;49845;47.130;142.766;2023-02-05T08:04:20;10.35;;;5.55;;
63699;SDS011;49845;47.130;142.766;2023-02-05T08:06:50;13.27;;;5.68;;
63699;SDS011;49845;47.130;142.766;2023-02-05T08:09:24;12.07;;;5.85;;
63699;SDS011;49845;47.130;142.766;2023-02-05T08:11:56;12.90;;;5.88;;
63699;SDS011;49845;47.130;142.766;2023-02-05T08:14:29;10.35;;;5.43;;
63699;SDS011;49845;47.130;142.766;2023-02-05T08:17:00;9.48;;;5.18;;
63699;SDS011;49845;47.130;142.766;2023-02-05T08:19:34;11.35;;;6.22;;
63699;SDS011;49845;47.130;142.766;2023-02-05T08:22:05;16.13;;;6.00;;
63699;SDS011;49845;47.130;142.766;2023-02-05T08:24:35;14.25;;;6.05;;
63699;SDS011;49845;47.130;142.766;2023-02-05T08:27:06;13.48;;;6.32;;
63699;SDS011;49845;47.130;142.766;2023-02-05T08:29:37;15.00;;;6.28;;
63699;SDS011;49845;47.130;142.766;2023-02-05T08:32:07;13.90;;;6.70;;
63699;SDS011;49845;47.130;142.766;2023-02-05T08:34:40;14.23;;;6.60;;
63699;SDS011;49845;47.130;142.766;2023-02-05T08:37:11;13.48;;;7.60;;
63699;SDS011;49845;47.130;142.766;2023-02-05T08:39:41;10.82;;;6.68;;
63699;SDS011;49845;47.130;142.766;2023-02-05T08:42:13;13.68;;;8.10;;
63699;SDS011;49845;47.130;142.766;2023-02-05T08:44:43;12.23;;;6.60;;
63699;SDS011;49845;47.130;142.766;2023-02-05T08:47:19;15.80;;;7.53;;
63699;SDS011;49845;47.130;142.766;2023-02-05T08:49:52;12.88;;;6.80;;
63699;SDS011;49845;47.130;142.766;2023-02-05T08:52:23;14.30;;;7.15;;
63699;SDS011;49845;47.130;142.766;2023-02-05T08:54:53;29.45;;;10.57;;
63699;SDS011;49845;47.130;142.766;2023-02-05T08:57:25;24.27;;;9.65;;
63699;SDS011;49845;47.130;142.766;2023-02-05T08:59:56;22.80;;;10.00;;
63699;SDS011;49845;47.130;142.766;2023-02-05T09:02:27;33.55;;;11.32;;
63699;SDS011;49845;47.130;142.766;2023-02-05T09:05:00;22.60;;;9.02;;
63699;SDS011;49845;47.130;142.766;2023-02-05T09:07:35;19.00;;;7.50;;
63699;SDS011;49845;47.130;142.766;2023-02-05T09:10:07;20.30;;;8.02;;
63699;SDS011;49845;47.130;142.766;2023-02-05T09:12:38;94.95;;;32.85;;
63699;SDS011;49845;47.130;142.766;2023-02-05T09:15:09;106.65;;;36.88;;
63699;SDS011;49845;47.130;142.766;2023-02-05T09:17:39;70.93;;;26.35;;
63699;SDS011;49845;47.130;142.766;2023-02-05T09:20:13;18.15;;;8.90;;
63699;SDS011;49845;47.130;142.766;2023-02-05T09:22:44;13.23;;;7.07;;
63699;SDS011;49845;47.130;142.766;2023-02-05T09:25:15;14.98;;;7.53;;
63699;SDS011;49845;47.130;142.766;2023-02-05T09:27:48;13.43;;;6.47;;
63699;SDS011;49845;47.130;142.766;2023-02-05T09:30:19;12.20;;;6.32;;
63699;SDS011;49845;47.130;142.766;2023-02-05T09:32:58;8.80;;;6.13;;
63699;SDS011;49845;47.130;142.766;2023-02-05T09:35:35;17.65;;;6.97;;
63699;SDS011;49845;47.130;142.766;2023-02-05T09:38:06;14.25;;;6.43;;
63699;SDS011;49845;47.130;142.766;2023-02-05T09:40:38;28.95;;;9.65;;
63699;SDS011;49845;47.130;142.766;2023-02-05T09:43:23;19.05;;;7.47;;
63699;SDS011;49845;47.130;142.766;2023-02-05T09:46:11;14.25;;;6.30;;
63699;SDS011;49845;47.130;142.766;2023-02-05T09:48:46;35.53;;;11.75;;
63699;SDS011;49845;47.130;142.766;2023-02-05T09:51:24;30.65;;;10.27;;
63699;SDS011;49845;47.130;142.766;2023-02-05T09:54:04;11.52;;;6.00;;
63699;SDS011;49845;47.130;142.766;2023-02-05T09:56:43;10.75;;;5.45;;
63699;SDS011;49845;47.130;142.766;2023-02-05T09:59:16;10.10;;;5.03;;
63699;SDS011;49845;47.130;142.766;2023-02-05T10:02:00;8.68;;;5.00;;
63699;SDS011;49845;47.130;142.766;2023-02-05T10:04:31;9.38;;;4.95;;
63699;SDS011;49845;47.130;142.766;2023-02-05T10:07:10;8.45;;;5.13;;
63699;SDS011;49845;47.130;142.766;2023-02-05T10:13:01;35.05;;;13.85;;
63699;SDS011;49845;47.130;142.766;2023-02-05T10:19:15;15.60;;;8.75;;
63699;SDS011;49845;47.130;142.766;2023-02-05T10:22:14;18.52;;;9.18;;
63699;SDS011;49845;47.130;142.766;2023-02-05T10:24:57;26.75;;;11.80;;
63699;SDS011;49845;47.130;142.766;2023-02-05T10:27:51;13.63;;;6.72;;
63699;SDS011;49845;47.130;142.766;2023-02-05T10:30:34;8.50;;;4.95;;
63699;SDS011;49845;47.130;142.766;2023-02-05T10:33:10;9.73;;;5.57;;
63699;SDS011;49845;47.130;142.766;2023-02-05T10:35:48;8.60;;;4.95;;
63699;SDS011;49845;47.130;142.766;2023-02-05T10:38:31;9.63;;;5.60;;
63699;SDS011;49845;47.130;142.766;2023-02-05T10:41:19;20.27;;;8.25;;
63699;SDS011;49845;47.130;142.766;2023-02-05T10:44:03;9.50;;;5.78;;
63699;SDS011;49845;47.130;142.766;2023-02-05T10:46:44;12.75;;;6.75;;
63699;SDS011;49845;47.130;142.766;2023-02-05T10:49:20;10.27;;;6.43;;
63699;SDS011;49845;47.130;142.766;2023-02-05T10:52:01;11.88;;;5.65;;
63699;SDS011;49845;47.130;142.766;2023-02-05T10:54:34;6.40;;;4.38;;
63699;SDS011;49845;47.130;142.766;2023-02-05T10:57:08;8.05;;;4.20;;
63699;SDS011;49845;47.130;142.766;2023-02-05T10:59:48;10.27;;;4.95;;
63699;SDS011;49845;47.130;142.766;2023-02-05T11:02:25;8.60;;;4.60;;
63699;SDS011;49845;47.130;142.766;2023-02-05T11:05:03;9.00;;;4.40;;
63699;SDS011;49845;47.130;142.766;2023-02-05T11:07:46;11.85;;;5.55;;
63699;SDS011;49845;47.130;142.766;2023-02-05T11:10:21;6.00;;;4.28;;
63699;SDS011;49845;47.130;142.766;2023-02-05T11:12:55;6.45;;;3.95;;
63699;SDS011;49845;47.130;142.766;2023-02-05T11:15:33;8.82;;;4.57;;
63699;SDS011;49845;47.130;142.766;2023-02-05T11:18:04;11.80;;;5.35;;
63699;SDS011;49845;47.130;142.766;2023-02-05T11:20:37;9.90;;;5.93;;
63699;SDS011;49845;47.130;142.766;2023-02-05T11:23:14;10.15;;;5.35;;
63699;SDS011;49845;47.130;142.766;2023-02-05T11:25:52;55.33;;;17.40;;
63699;SDS011;49845;47.130;142.766;2023-02-05T11:28:25;25.90;;;10.90;;
63699;SDS011;49845;47.130;142.766;2023-02-05T11:31:14;12.70;;;7.28;;
63699;SDS011;49845;47.130;142.766;2023-02-05T11:33:48;11.60;;;5.18;;
63699;SDS011;49845;47.130;142.766;2023-02-05T11:36:21;5.25;;;3.80;;
63699;SDS011;49845;47.130;142.766;2023-02-05T11:38:54;7.60;;;4.20;;
63699;SDS011;49845;47.130;142.766;2023-02-05T11:41:28;7.35;;;4.38;;
63699;SDS011;49845;47.130;142.766;2023-02-05T11:43:59;22.55;;;11.98;;
63699;SDS011;49845;47.130;142.766;2023-02-05T11:46:33;25.70;;;11.55;;
63699;SDS011;49845;47.130;142.766;2023-02-05T11:49:17;24.27;;;12.60;;
63699;SDS011;49845;47.130;142.766;2023-02-05T11:51:51;23.13;;;10.60;;
63699;SDS011;49845;47.130;142.766;2023-02-05T11:54:25;19.90;;;8.73;;
63699;SDS011;49845;47.130;142.766;2023-02-05T11:57:02;16.60;;;6.63;;
63699;SDS011;49845;47.130;142.766;2023-02-05T11:59:34;11.13;;;6.38;;
63699;SDS011;49845;47.130;142.766;2023-02-05T12:05:01;121.68;;;25.20;;
63699;SDS011;49845;47.130;142.766;2023-02-05T12:07:46;67.72;;;16.42;;
63699;SDS011;49845;47.130;142.766;2023-02-05T12:11:04;29.42;;;8.55;;
63699;SDS011;49845;47.130;142.766;2023-02-05T12:14:24;11.57;;;6.05;;
63699;SDS011;49845;47.130;142.766;2023-02-05T12:17:33;66.03;;;16.17;;
63699;SDS011;49845;47.130;142.766;2023-02-05T12:20:22;110.32;;;26.50;;
63699;SDS011;49845;47.130;142.766;2023-02-05T12:26:25;11.00;;;5.78;;
63699;SDS011;49845;47.130;142.766;2023-02-05T12:29:05;10.35;;;4.57;;
63699;SDS011;49845;47.130;142.766;2023-02-05T12:31:53;8.70;;;5.15;;
63699;SDS011;49845;47.130;142.766;2023-02-05T12:34:33;10.90;;;5.28;;
63699;SDS011;49845;47.130;142.766;2023-02-05T12:37:26;27.70;;;9.35;;
63699;SDS011;49845;47.130;142.766;2023-02-05T12:40:08;34.22;;;10.48;;
63699;SDS011;49845;47.130;142.766;2023-02-05T12:42:53;33.88;;;10.07;;
63699;SDS011;49845;47.130;142.766;2023-02-05T12:45:34;25.83;;;8.02;;
63699;SDS011;49845;47.130;142.766;2023-02-05T12:48:31;12.80;;;6.28;;
63699;SDS011;49845;47.130;142.766;2023-02-05T12:51:14;16.05;;;5.20;;
63699;SDS011;49845;47.130;142.766;2023-02-05T12:54:01;10.32;;;4.60;;
63699;SDS011;49845;47.130;142.766;2023-02-05T12:56:55;12.60;;;5.47;;
63699;SDS011;49845;47.130;142.766;2023-02-05T12:59:36;14.52;;;4.85;;
63699;SDS011;49845;47.130;142.766;2023-02-05T13:05:06;24.08;;;8.63;;
63699;SDS011;49845;47.130;142.766;2023-02-05T13:07:45;25.48;;;8.43;;
63699;SDS011;49845;47.130;142.766;2023-02-05T13:10:21;25.63;;;7.35;;
63699;SDS011;49845;47.130;142.766;2023-02-05T13:12:58;22.95;;;6.50;;
63699;SDS011;49845;47.130;142.766;2023-02-05T13:15:33;16.92;;;6.40;;
63699;SDS011;49845;47.130;142.766;2023-02-05T13:18:11;13.70;;;5.22;;
63699;SDS011;49845;47.130;142.766;2023-02-05T13:20:51;8.95;;;4.20;;
63699;SDS011;49845;47.130;142.766;2023-02-05T13:23:41;7.63;;;4.35;;
63699;SDS011;49845;47.130;142.766;2023-02-05T13:26:31;8.32;;;4.82;;
63699;SDS011;49845;47.130;142.766;2023-02-05T13:29:22;11.02;;;5.72;;
63699;SDS011;49845;47.130;142.766;2023-02-05T13:31:59;11.98;;;6.00;;
63699;SDS011;49845;47.130;142.766;2023-02-05T13:34:41;14.27;;;5.63;;
63699;SDS011;49845;47.130;142.766;2023-02-05T13:37:27;9.32;;;4.15;;
63699;SDS011;49845;47.130;142.766;2023-02-05T13:43:38;97.68;;;9.10;;
63699;SDS011;49845;47.130;142.766;2023-02-05T13:46:39;11.18;;;4.32;;
63699;SDS011;49845;47.130;142.766;2023-02-05T13:53:02;42.40;;;12.18;;
63699;SDS011;49845;47.130;142.766;2023-02-05T13:55:47;24.80;;;9.40;;
63699;SDS011;49845;47.130;142.766;2023-02-05T13:58:33;13.52;;;6.38;;
63699;SDS011;49845;47.130;142.766;2023-02-05T14:01:13;9.30;;;5.85;;
63699;SDS011;49845;47.130;142.766;2023-02-05T14:03:53;13.48;;;5.43;;
63699;SDS011;49845;47.130;142.766;2023-02-05T14:06:31;19.55;;;7.28;;
63699;SDS011;49845;47.130;142.766;2023-02-05T14:09:06;20.27;;;7.32;;
63699;SDS011;49845;47.130;142.766;2023-02-05T14:11:43;6.45;;;4.00;;
63699;SDS011;49845;47.130;142.766;2023-02-05T14:14:30;5.53;;;3.70;;
63699;SDS011;49845;47.130;142.766;2023-02-05T14:26:20;12.07;;;5.03;;
63699;SDS011;49845;47.130;142.766;2023-02-05T14:29:39;10.23;;;5.50;;
63699;SDS011;49845;47.130;142.766;2023-02-05T14:32:11;11.57;;;4.93;;
63699;SDS011;49845;47.130;142.766;2023-02-05T14:35:02;21.00;;;6.60;;
63699;SDS011;49845;47.130;142.766;2023-02-05T14:37:54;15.77;;;7.22;;
63699;SDS011;49845;47.130;142.766;2023-02-05T14:40:30;12.70;;;6.47;;
63699;SDS011;49845;47.130;142.766;2023-02-05T14:43:13;16.95;;;6.43;;
63699;SDS011;49845;47.130;142.766;2023-02-05T14:45:50;13.43;;;6.60;;
63699;SDS011;49845;47.130;142.766;2023-02-05T14:48:21;16.27;;;6.90;;
63699;SDS011;49845;47.130;142.766;2023-02-05T14:51:02;21.05;;;5.93;;
63699;SDS011;49845;47.130;142.766;2023-02-05T14:53:35;10.10;;;4.78;;
63699;SDS011;49845;47.130;142.766;2023-02-05T14:56:08;11.82;;;4.78;;
63699;SDS011;49845;47.130;142.766;2023-02-05T14:59:00;8.60;;;5.40;;
63699;SDS011;49845;47.130;142.766;2023-02-05T15:01:43;12.23;;;6.05;;
63699;SDS011;49845;47.130;142.766;2023-02-05T15:04:21;11.43;;;5.88;;
63699;SDS011;49845;47.130;142.766;2023-02-05T15:06:57;8.50;;;5.15;;
63699;SDS011;49845;47.130;142.766;2023-02-05T15:09:32;7.60;;;4.88;;
63699;SDS011;49845;47.130;142.766;2023-02-05T15:12:28;9.55;;;5.22;;
63699;SDS011;49845;47.130;142.766;2023-02-05T15:15:24;9.18;;;4.93;;
63699;SDS011;49845;47.130;142.766;2023-02-05T15:18:09;8.82;;;4.82;;
63699;SDS011;49845;47.130;142.766;2023-02-05T15:20:48;22.77;;;8.30;;
63699;SDS011;49845;47.130;142.766;2023-02-05T15:23:31;14.05;;;6.25;;
63699;SDS011;49845;47.130;142.766;2023-02-05T15:26:04;40.00;;;14.15;;
63699;SDS011;49845;47.130;142.766;2023-02-05T15:28:39;13.38;;;6.85;;